createdAt,value
2024-05-09T00:00:01.059Z,6.1
2024-05-09T00:01:01.141Z,6
2024-05-09T00:04:01.085Z,5.9
2024-05-09T00:05:01.170Z,6
2024-05-09T00:06:01.321Z,5.9
2024-05-09T00:08:01.239Z,6
2024-05-09T00:09:01.211Z,5.9
2024-05-09T00:11:01.375Z,6
2024-05-09T00:13:01.071Z,5.8
2024-05-09T00:14:01.131Z,5.9
2024-05-09T00:15:01.114Z,5.8
2024-05-09T00:17:01.090Z,5.9
2024-05-09T00:20:01.124Z,5.8
2024-05-09T00:23:01.276Z,5.9
2024-05-09T00:26:01.139Z,5.7
2024-05-09T00:27:01.052Z,5.8
2024-05-09T00:34:01.335Z,5.9
2024-05-09T00:36:01.000Z,5.8
2024-05-09T00:37:01.052Z,5.7
2024-05-09T00:38:01.284Z,5.8
2024-05-09T00:40:01.033Z,5.6
2024-05-09T00:44:01.037Z,5.7
2024-05-09T00:46:01.161Z,5.6
2024-05-09T00:49:01.156Z,5.5
2024-05-09T00:52:01.051Z,5.7
2024-05-09T00:53:01.071Z,5.6
2024-05-09T00:56:01.030Z,5.5
2024-05-09T00:57:01.120Z,5.6
2024-05-09T00:59:01.094Z,5.4
2024-05-09T01:08:01.279Z,5.6
2024-05-09T01:10:00.975Z,5.6
2024-05-09T01:11:01.138Z,5.5
2024-05-09T01:13:01.034Z,5.5
2024-05-09T01:14:01.182Z,5.4
2024-05-09T01:16:01.215Z,5.4
2024-05-09T01:21:01.137Z,5.3
2024-05-09T01:23:01.189Z,5.3
2024-05-09T01:25:01.053Z,5.4
2024-05-09T01:28:00.974Z,5.2
2024-05-09T01:31:01.115Z,5.3
2024-05-09T01:33:01.447Z,5.3
2024-05-09T01:35:01.146Z,5.4
2024-05-09T01:36:01.082Z,5.2
2024-05-09T01:41:01.197Z,5.4
2024-05-09T01:43:01.062Z,5.2
2024-05-09T01:47:01.247Z,5.1
2024-05-09T01:49:01.076Z,5.1
2024-05-09T01:51:01.213Z,5.2
2024-05-09T01:55:03.476Z,5.1
2024-05-09T01:57:01.031Z,5.1
2024-05-09T02:00:01.116Z,5.2
2024-05-09T02:01:01.063Z,5.1
2024-05-09T02:04:01.366Z,5
2024-05-09T02:07:01.052Z,5.2
2024-05-09T02:13:01.158Z,5.2
2024-05-09T02:15:01.214Z,5
2024-05-09T02:17:01.087Z,5.1
2024-05-09T02:19:01.248Z,5.2
2024-05-09T02:23:01.057Z,5
2024-05-09T02:26:01.224Z,4.9
2024-05-09T02:28:01.080Z,4.9
2024-05-09T02:31:01.078Z,5
2024-05-09T02:33:01.448Z,4.9
2024-05-09T02:35:01.144Z,4.8
2024-05-09T02:38:01.215Z,4.7
2024-05-09T02:40:01.099Z,4.9
2024-05-09T02:42:01.010Z,4.8
2024-05-09T02:43:01.147Z,4.7
2024-05-09T02:45:01.150Z,4.7
2024-05-09T02:46:01.165Z,4.8
2024-05-09T02:48:01.836Z,4.7
2024-05-09T02:49:01.377Z,4.6
2024-05-09T02:52:01.088Z,4.8
2024-05-09T02:53:01.274Z,4.7
2024-05-09T02:54:01.167Z,4.6
2024-05-09T02:55:01.097Z,4.7
2024-05-09T02:58:01.055Z,4.6
2024-05-09T03:00:01.109Z,4.8
2024-05-09T03:01:01.244Z,4.7
2024-05-09T03:04:01.109Z,4.6
2024-05-09T03:08:01.243Z,4.7
2024-05-09T03:11:01.207Z,4.6
2024-05-09T03:12:01.228Z,4.5
2024-05-09T03:14:01.228Z,4.4
2024-05-09T03:17:01.128Z,4.4
2024-05-09T03:18:01.444Z,4.5
2024-05-09T03:19:01.328Z,4.4
2024-05-09T03:22:01.396Z,4.3
2024-05-09T03:24:01.142Z,4.3
2024-05-09T03:26:01.358Z,4.5
2024-05-09T03:35:01.240Z,4.6
2024-05-09T03:38:01.320Z,4.7
2024-05-09T03:41:01.399Z,4.6
2024-05-09T03:43:01.036Z,4.8
2024-05-09T03:44:01.109Z,4.6
2024-05-09T03:45:01.067Z,4.8
2024-05-09T03:47:01.084Z,4.7
2024-05-09T03:51:01.181Z,4.8
2024-05-09T03:53:01.376Z,4.9
2024-05-09T03:56:01.156Z,5
2024-05-09T03:59:01.159Z,4.9
2024-05-09T04:01:01.232Z,5.1
2024-05-09T04:04:01.011Z,5.2
2024-05-09T04:07:01.086Z,5.3
2024-05-09T04:09:01.123Z,5.3
2024-05-09T04:11:01.195Z,5.4
2024-05-09T04:12:01.286Z,5.3
2024-05-09T04:14:01.107Z,5.6
2024-05-09T04:15:01.217Z,5.4
2024-05-09T04:16:01.190Z,5.6
2024-05-09T04:18:01.810Z,5.6
2024-05-09T04:21:01.182Z,5.7
2024-05-09T04:23:01.302Z,5.7
2024-05-09T04:25:01.027Z,5.8
2024-05-09T04:28:01.039Z,5.9
2024-05-09T04:29:01.302Z,5.8
2024-05-09T04:33:01.220Z,5.9
2024-05-09T04:36:01.004Z,6
2024-05-09T04:38:01.028Z,6.1
2024-05-09T04:41:01.062Z,6.2
2024-05-09T04:44:01.049Z,6.3
2024-05-09T04:46:01.008Z,6.5
2024-05-09T04:47:01.139Z,6.3
2024-05-09T04:48:01.770Z,6.5
2024-05-09T04:49:01.436Z,6.6
2024-05-09T04:53:01.121Z,6.7
2024-05-09T04:55:01.100Z,6.7
2024-05-09T04:57:01.034Z,7
2024-05-09T04:59:01.078Z,6.8
2024-05-09T05:02:01.200Z,7.1
2024-05-09T05:05:01.387Z,7.2
2024-05-09T05:08:01.254Z,7.4
2024-05-09T05:11:01.558Z,7.5
2024-05-09T05:13:01.361Z,7.5
2024-05-09T05:17:01.418Z,7.9
2024-05-09T05:19:01.651Z,7.9
2024-05-09T05:22:01.263Z,8
2024-05-09T05:24:01.235Z,8.2
2024-05-09T05:27:01.281Z,8.4
2024-05-09T05:32:01.168Z,8.8
2024-05-09T05:35:01.318Z,9
2024-05-09T05:37:01.406Z,9.1
2024-05-09T05:41:01.297Z,9.4
2024-05-09T05:44:01.138Z,10
2024-05-09T05:46:01.144Z,10.3
2024-05-09T05:47:01.560Z,10.7
2024-05-09T05:49:01.231Z,11.2
2024-05-09T05:52:01.185Z,11.8
2024-05-09T05:53:01.274Z,11.9
2024-05-09T05:55:01.553Z,12.1
2024-05-09T05:58:01.125Z,12.4
2024-05-09T06:00:01.302Z,12.5
2024-05-09T06:01:01.301Z,12.4
2024-05-09T06:04:01.066Z,12.3
2024-05-09T06:06:01.141Z,12.2
2024-05-09T06:07:01.014Z,12.3
2024-05-09T06:16:01.116Z,12.2
2024-05-09T06:18:01.436Z,12.3
2024-05-09T06:20:01.086Z,12.4
2024-05-09T06:21:01.225Z,12.3
2024-05-09T06:23:01.156Z,12.4
2024-05-09T06:25:01.005Z,12.5
2024-05-09T06:31:01.056Z,12.5
2024-05-09T06:34:01.104Z,12.5
2024-05-09T06:35:01.067Z,12.4
2024-05-09T06:39:01.287Z,12.5
2024-05-09T06:41:01.095Z,12.5
2024-05-09T06:43:01.030Z,12.7
2024-05-09T06:44:01.116Z,12.6
2024-05-09T06:46:01.144Z,12.7
2024-05-09T06:48:01.278Z,12.9
2024-05-09T06:51:01.210Z,12.9
2024-05-09T06:53:01.087Z,13.1
2024-05-09T06:55:01.034Z,13.2
2024-05-09T06:56:01.033Z,13.1
2024-05-09T06:58:01.007Z,13.1
2024-05-09T06:59:01.266Z,13.2
2024-05-09T07:01:01.036Z,13.4
2024-05-09T07:02:01.196Z,13.2
2024-05-09T07:04:01.127Z,13.3
2024-05-09T07:06:01.024Z,13.4
2024-05-09T07:07:01.068Z,13.5
2024-05-09T07:11:01.154Z,13.4
2024-05-09T07:14:01.114Z,13.5
2024-05-09T07:16:01.024Z,13.6
2024-05-09T07:17:01.212Z,13.7
2024-05-09T07:19:01.330Z,13.9
2024-05-09T07:21:01.181Z,14.2
2024-05-09T07:23:01.090Z,14.3
2024-05-09T07:25:01.049Z,14.5
2024-05-09T07:29:01.183Z,14.6
2024-05-09T07:30:01.184Z,14.5
2024-05-09T07:33:01.609Z,14.4
2024-05-09T07:39:01.093Z,14.3
2024-05-09T07:43:01.349Z,14.4
2024-05-09T07:46:17.077Z,14.6
2024-05-09T07:50:00.017Z,15
2024-05-09T07:52:22.546Z,15.4
2024-05-09T07:53:29.530Z,15.5
2024-05-09T07:56:01.308Z,15.7
2024-05-09T07:59:01.023Z,15.6
2024-05-09T08:01:01.230Z,15.7
2024-05-09T08:02:01.304Z,15.6
2024-05-09T08:04:01.223Z,15.8
2024-05-09T08:07:01.277Z,15.8
2024-05-09T08:09:05.081Z,15.9
2024-05-09T08:11:01.119Z,15.8
2024-05-09T08:13:01.301Z,15.8
2024-05-09T08:15:01.132Z,16
2024-05-09T08:18:01.127Z,16.2
2024-05-09T08:19:01.142Z,16.4
2024-05-09T08:22:01.051Z,16.5
2024-05-09T08:24:01.061Z,16.6
2024-05-09T08:26:01.109Z,16.5
2024-05-09T08:28:01.111Z,16.4
2024-05-09T08:31:04.029Z,16.2
2024-05-09T08:33:01.086Z,16.3
2024-05-09T08:35:01.152Z,16.3
2024-05-09T08:36:01.214Z,16.2
2024-05-09T08:39:01.075Z,16.4
2024-05-09T08:41:01.035Z,16.6
2024-05-09T08:42:01.043Z,16.7
2024-05-09T08:43:01.304Z,16.8
2024-05-09T08:46:01.149Z,16.9
2024-05-09T08:48:01.552Z,16.9
2024-05-09T08:49:01.389Z,16.8
2024-05-09T08:51:01.078Z,17
2024-05-09T08:53:01.105Z,16.7
2024-05-09T08:57:01.102Z,16.7
2024-05-09T08:59:01.080Z,16.8
2024-05-09T09:02:01.225Z,16.4
2024-05-09T09:04:01.405Z,16.3
2024-05-09T09:07:03.070Z,16
2024-05-09T09:09:01.047Z,16
2024-05-09T09:12:01.209Z,16.2
2024-05-09T09:14:01.122Z,16
2024-05-09T09:15:01.167Z,15.9
2024-05-09T09:18:01.466Z,16
2024-05-09T09:19:01.264Z,16.1
2024-05-09T09:21:01.032Z,16.3
2024-05-09T09:23:01.195Z,16.2
2024-05-09T09:27:01.237Z,16.3
2024-05-09T09:29:01.023Z,16.2
2024-05-09T09:30:01.067Z,16.1
2024-05-09T09:31:01.218Z,16
2024-05-09T09:33:01.188Z,16
2024-05-09T09:36:01.007Z,16.1
2024-05-09T09:37:01.079Z,16.2
2024-05-09T09:39:01.153Z,16.2
2024-05-09T09:40:01.130Z,16.3
2024-05-09T09:42:00.994Z,16.7
2024-05-09T09:43:01.157Z,16.8
2024-05-09T09:44:01.155Z,16.9
2024-05-09T09:45:04.178Z,16.8
2024-05-09T09:47:01.071Z,16.9
2024-05-09T09:49:01.171Z,16.9
2024-05-09T09:50:01.079Z,17.1
2024-05-09T09:51:01.122Z,17
2024-05-09T09:52:01.215Z,17.2
2024-05-09T09:54:01.047Z,17.2
2024-05-09T09:55:01.058Z,17.4
2024-05-09T09:56:01.181Z,17.5
2024-05-09T09:58:01.148Z,17.6
2024-05-09T09:59:01.102Z,17.5
2024-05-09T10:04:01.280Z,17.4
2024-05-09T10:06:01.042Z,17.8
2024-05-09T10:07:01.047Z,17.7
2024-05-09T10:10:01.059Z,17.8
2024-05-09T10:11:01.194Z,17.9
2024-05-09T10:15:01.146Z,17.9
2024-05-09T10:16:01.272Z,18
2024-05-09T10:19:01.183Z,17.9
2024-05-09T10:20:01.197Z,17.8
2024-05-09T10:22:01.115Z,18.1
2024-05-09T10:23:01.119Z,18
2024-05-09T10:25:02.802Z,18.4
2024-05-09T10:27:01.119Z,18.7
2024-05-09T10:31:01.080Z,18.9
2024-05-09T10:32:01.019Z,19.1
2024-05-09T10:36:00.966Z,19.2
2024-05-09T10:38:00.988Z,19.1
2024-05-09T10:40:01.103Z,18.9
2024-05-09T10:42:01.014Z,18.8
2024-05-09T10:47:01.101Z,18.5
2024-05-09T10:48:01.254Z,18.4
2024-05-09T10:51:01.143Z,18.6
2024-05-09T10:54:01.009Z,18.8
2024-05-09T10:55:02.264Z,18.7
2024-05-09T10:57:01.123Z,18.4
2024-05-09T10:59:01.334Z,18.2
2024-05-09T11:01:03.356Z,18
2024-05-09T11:03:01.179Z,18
2024-05-09T11:04:01.290Z,18.1
2024-05-09T11:05:01.265Z,17.9
2024-05-09T11:07:03.799Z,18.1
2024-05-09T11:09:01.074Z,18.2
2024-05-09T11:11:01.291Z,18.3
2024-05-09T11:13:01.166Z,18.7
2024-05-09T11:15:01.047Z,19.2
2024-05-09T11:16:01.138Z,19.4
2024-05-09T11:17:01.077Z,19.6
2024-05-09T11:19:01.231Z,19.8
2024-05-09T11:22:01.060Z,20.2
2024-05-09T11:23:01.172Z,20.3
2024-05-09T11:26:01.026Z,20.5
2024-05-09T11:28:01.127Z,20.7
2024-05-09T11:29:01.095Z,20.6
2024-05-09T11:34:01.241Z,20.2
2024-05-09T11:35:01.117Z,19.9
2024-05-09T11:37:01.208Z,19.4
2024-05-09T11:39:01.218Z,19.4
2024-05-09T11:41:01.038Z,19.3
2024-05-09T11:43:01.105Z,19
2024-05-09T11:47:01.084Z,18.9
2024-05-09T11:49:01.314Z,19.1
2024-05-09T11:51:01.155Z,19.2
2024-05-09T11:53:01.059Z,19.2
2024-05-09T11:55:01.388Z,19.4
2024-05-09T11:58:01.220Z,18.9
2024-05-09T12:02:01.294Z,19
2024-05-09T12:03:01.085Z,19.1
2024-05-09T12:06:01.248Z,19.2
2024-05-09T12:07:01.106Z,19.3
2024-05-09T12:09:01.007Z,19.3
2024-05-09T12:10:01.078Z,19.4
2024-05-09T12:11:01.379Z,19.2
2024-05-09T12:13:01.076Z,19.3
2024-05-09T12:15:01.142Z,19.3
2024-05-09T12:17:01.029Z,19.4
2024-05-09T12:19:01.155Z,19.3
2024-05-09T12:21:01.182Z,19.2
2024-05-09T12:22:01.255Z,19.4
2024-05-09T12:26:01.168Z,19.3
2024-05-09T12:28:01.404Z,19.2
2024-05-09T12:29:01.456Z,19.4
2024-05-09T12:31:01.097Z,19.1
2024-05-09T12:32:01.129Z,19.3
2024-05-09T12:36:01.119Z,19.5
2024-05-09T12:37:01.124Z,19.7
2024-05-09T12:39:01.078Z,19.7
2024-05-09T12:41:01.034Z,19.8
2024-05-09T12:43:01.200Z,20.1
2024-05-09T12:45:01.090Z,20.2
2024-05-09T12:46:01.329Z,20.3
2024-05-09T12:48:01.244Z,20.3
2024-05-09T12:50:01.001Z,20.2
2024-05-09T12:51:01.040Z,20.4
2024-05-09T12:55:01.170Z,20.2
2024-05-09T12:57:01.233Z,20
2024-05-09T12:59:01.029Z,19.8
2024-05-09T13:00:01.196Z,19.7
2024-05-09T13:03:01.476Z,19.5
2024-05-09T13:05:01.091Z,19.3
2024-05-09T13:09:01.153Z,19.6
2024-05-09T13:12:01.034Z,19.8
2024-05-09T13:13:01.937Z,20
2024-05-09T13:15:01.069Z,20.5
2024-05-09T13:17:01.047Z,20.6
2024-05-09T13:19:01.089Z,21
2024-05-09T13:21:01.054Z,21.1
2024-05-09T13:23:01.078Z,21.4
2024-05-09T13:25:01.181Z,21.6
2024-05-09T13:27:01.077Z,21.6
2024-05-09T13:29:01.084Z,21.1
2024-05-09T13:33:01.171Z,21.3
2024-05-09T13:35:01.060Z,21.2
2024-05-09T13:37:01.211Z,21.3
2024-05-09T13:39:00.999Z,21.2
2024-05-09T13:40:01.126Z,21.3
2024-05-09T13:42:01.004Z,21.2
2024-05-09T13:43:01.079Z,21.5
2024-05-09T13:45:01.085Z,21.6
2024-05-09T13:47:01.124Z,22
2024-05-09T13:49:01.193Z,21.9
2024-05-09T13:52:01.097Z,21.7
2024-05-09T13:53:01.062Z,21.5
2024-05-09T13:55:01.101Z,21
2024-05-09T13:57:01.118Z,20.6
2024-05-09T13:59:01.058Z,20.3
2024-05-09T14:02:01.108Z,20
2024-05-09T14:05:01.183Z,20.1
2024-05-09T14:07:01.111Z,20.1
2024-05-09T14:08:01.151Z,20
2024-05-09T14:13:01.413Z,19.9
2024-05-09T14:16:01.100Z,19.6
2024-05-09T14:17:01.213Z,19.7
2024-05-09T14:18:01.333Z,19.6
2024-05-09T14:20:01.066Z,19.7
2024-05-09T14:21:01.052Z,19.8
2024-05-09T14:23:01.231Z,19.7
2024-05-09T14:25:01.102Z,19.7
2024-05-09T14:26:01.213Z,19.8
2024-05-09T14:27:01.157Z,19.7
2024-05-09T14:33:01.479Z,19.5
2024-05-09T14:35:01.072Z,19.5
2024-05-09T14:38:01.002Z,19.4
2024-05-09T14:40:00.994Z,19.6
2024-05-09T14:41:01.130Z,19.5
2024-05-09T14:43:02.895Z,19.6
2024-05-09T14:45:01.169Z,19.6
2024-05-09T14:47:01.103Z,19.4
2024-05-09T14:52:01.075Z,19.3
2024-05-09T14:53:01.179Z,19.1
2024-05-09T14:55:01.262Z,19.3
2024-05-09T14:57:01.138Z,19.3
2024-05-09T15:00:01.034Z,19.4
2024-05-09T15:04:01.097Z,19.2
2024-05-09T15:08:01.015Z,19.1
2024-05-09T15:09:01.209Z,19
2024-05-09T15:11:01.168Z,18.8
2024-05-09T15:13:01.222Z,18.9
2024-05-09T15:17:01.050Z,19
2024-05-09T15:20:01.140Z,18.9
2024-05-09T15:21:01.226Z,18.7
2024-05-09T15:23:01.193Z,18.8
2024-05-09T15:28:01.193Z,19
2024-05-09T15:29:01.037Z,18.9
2024-05-09T15:31:01.084Z,19.1
2024-05-09T15:33:01.389Z,18.9
2024-05-09T15:36:00.989Z,19.1
2024-05-09T15:39:01.031Z,19.2
2024-05-09T15:42:00.975Z,19.1
2024-05-09T15:43:01.226Z,19
2024-05-09T15:45:01.034Z,18.8
2024-05-09T15:46:01.118Z,18.7
2024-05-09T15:48:01.111Z,18.6
2024-05-09T15:49:01.402Z,18.4
2024-05-09T15:52:01.241Z,18.3
2024-05-09T15:54:01.019Z,18.3
2024-05-09T15:55:01.084Z,18.2
2024-05-09T15:57:01.070Z,18.4
2024-05-09T15:59:01.111Z,18.3
2024-05-09T16:00:01.128Z,18.2
2024-05-09T16:01:01.235Z,18.3
2024-05-09T16:03:01.160Z,18.2
2024-05-09T16:04:01.198Z,18.1
2024-05-09T16:06:01.122Z,18.1
2024-05-09T16:10:01.023Z,18.2
2024-05-09T16:11:01.089Z,18.1
2024-05-09T16:14:00.993Z,18.3
2024-05-09T16:20:00.994Z,18.4
2024-05-09T16:21:01.252Z,18.2
2024-05-09T16:23:01.008Z,18.2
2024-05-09T16:25:01.084Z,18.3
2024-05-09T16:26:01.190Z,18.4
2024-05-09T16:29:01.114Z,18.2
2024-05-09T16:31:01.083Z,18.1
2024-05-09T16:34:01.072Z,18
2024-05-09T16:35:01.122Z,18.1
2024-05-09T16:37:01.302Z,18.1
2024-05-09T16:41:01.046Z,18.1
2024-05-09T16:42:01.051Z,18
2024-05-09T16:47:01.112Z,17.9
2024-05-09T16:50:00.995Z,18
2024-05-09T16:52:00.982Z,17.9
2024-05-09T16:53:01.171Z,18
2024-05-09T16:57:01.050Z,17.9
2024-05-09T17:03:01.262Z,17.9
2024-05-09T17:06:01.080Z,17.7
2024-05-09T17:08:01.002Z,17.8
2024-05-09T17:09:05.412Z,17.7
2024-05-09T17:10:01.183Z,17.6
2024-05-09T17:13:01.078Z,17.7
2024-05-09T17:15:01.117Z,17.6
2024-05-09T17:18:01.082Z,17.7
2024-05-09T17:19:01.094Z,17.6
2024-05-09T17:21:01.093Z,17.4
2024-05-09T17:24:01.330Z,17.3
2024-05-09T17:26:00.998Z,17.4
2024-05-09T17:28:00.956Z,17.3
2024-05-09T17:30:01.271Z,17.2
2024-05-09T17:32:00.987Z,17.1
2024-05-09T17:34:01.109Z,17.2
2024-05-09T17:37:01.080Z,16.9
2024-05-09T17:39:01.053Z,17
2024-05-09T17:43:01.148Z,16.8
2024-05-09T17:45:01.139Z,16.8
2024-05-09T17:47:01.012Z,16.7
2024-05-09T17:48:01.468Z,16.8
2024-05-09T17:49:01.447Z,16.5
2024-05-09T17:51:01.004Z,16.5
2024-05-09T17:53:01.110Z,16.5
2024-05-09T17:55:01.107Z,16.5
2024-05-09T17:56:01.015Z,16.3
2024-05-09T17:57:01.015Z,16.4
2024-05-09T17:59:01.270Z,16.2
2024-05-09T18:02:01.081Z,16.1
2024-05-09T18:03:01.092Z,16.2
2024-05-09T18:05:01.442Z,16.1
2024-05-09T18:07:01.183Z,15.9
2024-05-09T18:09:01.190Z,16.1
2024-05-09T18:10:01.345Z,15.9
2024-05-09T18:12:01.112Z,15.7
2024-05-09T18:14:01.102Z,15.8
2024-05-09T18:16:01.439Z,15.7
2024-05-09T18:19:01.175Z,15.7
2024-05-09T18:20:01.223Z,15.6
2024-05-09T18:21:01.089Z,15.7
2024-05-09T18:23:01.220Z,15.5
2024-05-09T18:27:01.281Z,15.4
2024-05-09T18:31:01.122Z,15.3
2024-05-09T18:33:01.213Z,15.2
2024-05-09T18:37:03.730Z,15
2024-05-09T18:39:01.025Z,15.1
2024-05-09T18:42:01.007Z,15.2
2024-05-09T18:43:01.207Z,14.8
2024-05-09T18:45:01.049Z,14.8
2024-05-09T18:47:01.145Z,14.8
2024-05-09T18:48:01.439Z,14.7
2024-05-09T18:50:01.128Z,14.5
2024-05-09T18:51:01.137Z,14.6
2024-05-09T18:54:01.012Z,14.3
2024-05-09T18:56:01.012Z,14.2
2024-05-09T18:58:01.246Z,14.1
2024-05-09T19:00:01.092Z,14
2024-05-09T19:02:01.179Z,13.8
2024-05-09T19:03:01.352Z,14
2024-05-09T19:07:01.062Z,13.7
2024-05-09T19:13:01.625Z,13.4
2024-05-09T19:15:01.114Z,13.4
2024-05-09T19:17:01.047Z,13.5
2024-05-09T19:21:01.087Z,13.3
2024-05-09T19:25:01.021Z,13.2
2024-05-09T19:26:01.012Z,13.1
2024-05-09T19:27:01.075Z,13.2
2024-05-09T19:29:01.332Z,13
2024-05-09T19:31:01.094Z,13
2024-05-09T19:34:01.036Z,12.8
2024-05-09T19:35:01.090Z,12.9
2024-05-09T19:36:01.130Z,12.8
2024-05-09T19:39:01.059Z,12.8
2024-05-09T19:42:01.152Z,12.6
2024-05-09T19:48:01.423Z,12.5
2024-05-09T19:50:01.182Z,12.4
2024-05-09T19:54:01.021Z,12.3
2024-05-09T19:55:01.129Z,12.4
2024-05-09T19:58:02.590Z,12.3
2024-05-09T19:59:01.082Z,12.1
2024-05-09T20:00:01.155Z,12.2
2024-05-09T20:02:01.132Z,12.2
2024-05-09T20:03:01.143Z,12
2024-05-09T20:04:01.343Z,11.9
2024-05-09T20:10:01.112Z,11.8
2024-05-09T20:11:01.263Z,11.7
2024-05-09T20:13:01.165Z,11.7
2024-05-09T20:15:01.305Z,11.6
2024-05-09T20:19:01.172Z,11.6
2024-05-09T20:21:01.171Z,11.7
2024-05-09T20:23:01.072Z,11.6
2024-05-09T20:26:01.003Z,11.4
2024-05-09T20:27:01.044Z,11.5
2024-05-09T20:29:01.233Z,11.3
2024-05-09T20:31:01.063Z,11.2
2024-05-09T20:33:01.656Z,11.2
2024-05-09T20:35:01.120Z,11.2
2024-05-09T20:38:01.475Z,11.1
2024-05-09T20:42:00.950Z,11
2024-05-09T20:49:01.273Z,10.8
2024-05-09T20:53:01.055Z,10.8
2024-05-09T20:55:01.084Z,10.8
2024-05-09T20:58:01.038Z,10.9
2024-05-09T20:59:01.135Z,10.8
2024-05-09T21:01:01.203Z,10.6
2024-05-09T21:03:01.259Z,10.7
2024-05-09T21:05:01.133Z,10.6
2024-05-09T21:09:01.220Z,10.5
2024-05-09T21:11:01.158Z,10.5
2024-05-09T21:13:02.186Z,10.3
2024-05-09T21:16:01.127Z,10.3
2024-05-09T21:17:01.073Z,10.2
2024-05-09T21:21:01.096Z,10.1
2024-05-09T21:23:01.421Z,10
2024-05-09T21:24:01.176Z,10.1
2024-05-09T21:26:01.011Z,9.9
2024-05-09T21:27:01.095Z,10
2024-05-09T21:31:01.078Z,9.8
2024-05-09T21:38:01.076Z,9.7
2024-05-09T21:40:01.101Z,9.6
2024-05-09T21:41:01.248Z,9.5
2024-05-09T21:43:01.431Z,9.7
2024-05-09T21:46:01.184Z,9.5
2024-05-09T21:48:01.093Z,9.7
2024-05-09T21:49:01.076Z,9.5
2024-05-09T21:50:01.087Z,9.7
2024-05-09T21:52:01.166Z,9.6
2024-05-09T21:58:01.201Z,9.5
2024-05-09T21:59:01.096Z,9.4
2024-05-09T22:02:01.049Z,9.6
2024-05-09T22:03:01.117Z,9.4
2024-05-09T22:05:01.498Z,9.5
2024-05-09T22:08:01.011Z,9.3
2024-05-09T22:10:01.042Z,9.2
2024-05-09T22:14:01.017Z,9.1
2024-05-09T22:15:01.401Z,9.3
2024-05-09T22:17:01.169Z,9.2
2024-05-09T22:22:01.132Z,9.1
2024-05-09T22:24:00.961Z,9
2024-05-09T22:25:01.232Z,9.1
2024-05-09T22:27:01.092Z,9
2024-05-09T22:32:01.015Z,8.9
2024-05-09T22:33:01.079Z,9
2024-05-09T22:35:01.099Z,9
2024-05-09T22:36:01.024Z,8.9
2024-05-09T22:37:01.062Z,9
2024-05-09T22:42:00.977Z,8.7
2024-05-09T22:43:01.383Z,8.9
2024-05-09T22:47:01.153Z,8.9
2024-05-09T22:49:01.195Z,8.8
2024-05-09T22:50:01.251Z,8.9
2024-05-09T22:53:01.320Z,8.7
2024-05-09T22:56:00.978Z,8.9
2024-05-09T22:57:01.082Z,8.7
2024-05-09T22:59:01.083Z,8.7
2024-05-09T23:01:01.279Z,8.7
2024-05-09T23:04:01.341Z,8.7
2024-05-09T23:09:01.100Z,8.8
2024-05-09T23:12:01.120Z,8.9
2024-05-09T23:13:01.171Z,8.7
2024-05-09T23:17:01.142Z,8.5
2024-05-09T23:20:01.034Z,8.5
2024-05-09T23:21:01.063Z,8.6
2024-05-09T23:25:01.132Z,8.4
2024-05-09T23:27:01.409Z,8.4
2024-05-09T23:32:01.217Z,8.4
2024-05-09T23:33:01.472Z,8.5
2024-05-09T23:39:01.084Z,8.3
2024-05-09T23:40:01.124Z,8.4
2024-05-09T23:41:01.144Z,8.3
2024-05-09T23:46:01.052Z,8.4
2024-05-09T23:47:01.151Z,8.2
2024-05-09T23:48:01.344Z,8.3
2024-05-09T23:50:00.972Z,8.2
